createdAt,value
2018-07-04T00:02:37.312Z,3.70
2018-07-04T00:07:47.649Z,2.77
2018-07-04T00:12:57.852Z,3.10
2018-07-04T00:18:08.099Z,2.90
2018-07-04T00:23:18.419Z,3.20
2018-07-04T00:28:28.747Z,2.70
2018-07-04T00:33:39.068Z,2.73
2018-07-04T00:38:49.380Z,2.73
2018-07-04T00:43:54.002Z,3.30
2018-07-04T00:49:04.220Z,2.77
2018-07-04T00:54:14.381Z,2.63
2018-07-04T00:59:24.706Z,2.67
2018-07-04T01:04:34.900Z,2.70
2018-07-04T01:09:40.554Z,2.63
2018-07-04T01:14:51.275Z,2.40
2018-07-04T01:20:01.808Z,2.43
2018-07-04T01:25:12.145Z,2.20
2018-07-04T01:30:22.552Z,2.70
2018-07-04T01:35:32.950Z,1.97
2018-07-04T01:40:43.124Z,2.43
2018-07-04T01:45:53.499Z,2.23
2018-07-04T01:51:03.952Z,1.90
2018-07-04T01:56:14.385Z,2.00
2018-07-04T02:01:24.607Z,1.83
2018-07-04T02:06:35.024Z,2.20
2018-07-04T02:11:39.455Z,1.77
2018-07-04T02:16:49.783Z,2.27
2018-07-04T02:22:00.081Z,2.00
2018-07-04T02:27:11.604Z,2.30
2018-07-04T02:32:21.842Z,1.73
2018-07-04T02:37:32.277Z,2.03
2018-07-04T02:42:42.702Z,1.77
2018-07-04T02:47:53.074Z,1.70
2018-07-04T02:53:03.456Z,1.93
2018-07-04T02:58:13.714Z,1.97
2018-07-04T03:03:24.409Z,2.13
2018-07-04T03:08:34.791Z,2.03
2018-07-04T03:13:45.247Z,2.00
2018-07-04T03:18:55.512Z,2.30
2018-07-04T03:24:05.962Z,2.20
2018-07-04T03:29:16.255Z,2.10
2018-07-04T03:34:26.696Z,2.10
2018-07-04T03:39:36.839Z,2.13
2018-07-04T03:44:47.117Z,2.00
2018-07-04T03:49:57.284Z,1.90
2018-07-04T03:55:07.652Z,2.00
2018-07-04T04:00:17.946Z,2.37
2018-07-04T04:05:28.170Z,2.20
2018-07-04T04:10:38.583Z,2.17
2018-07-04T04:15:48.742Z,2.20
2018-07-04T04:20:59.044Z,2.13
2018-07-04T04:26:09.506Z,2.27
2018-07-04T04:31:19.762Z,1.80
2018-07-04T04:36:30.148Z,1.93
2018-07-04T04:41:40.350Z,2.00
2018-07-04T04:46:50.603Z,1.80
2018-07-04T04:52:00.889Z,2.07
2018-07-04T04:57:11.368Z,2.40
2018-07-04T05:02:21.676Z,2.00
2018-07-04T05:07:32.025Z,1.90
2018-07-04T05:12:36.496Z,2.00
2018-07-04T05:17:46.829Z,2.30
2018-07-04T05:22:57.190Z,2.10
2018-07-04T05:28:07.610Z,1.90
2018-07-04T05:33:17.992Z,1.90
2018-07-04T05:38:28.235Z,2.30
2018-07-04T05:43:39.645Z,2.13
2018-07-04T05:48:50.017Z,2.00
2018-07-04T05:53:54.576Z,1.80
2018-07-04T05:59:05.187Z,1.70
2018-07-04T06:04:15.411Z,1.63
2018-07-04T06:09:20.008Z,2.40
2018-07-04T06:14:30.441Z,1.80
2018-07-04T06:19:41.333Z,1.80
2018-07-04T06:24:51.656Z,2.00
2018-07-04T06:30:02.072Z,1.67
2018-07-04T06:35:07.130Z,2.00
2018-07-04T06:39:59.411Z,1.73
2018-07-04T06:44:51.699Z,2.05
2018-07-04T06:49:43.946Z,1.67
2018-07-04T06:54:36.219Z,1.72
2018-07-04T06:59:28.548Z,2.00
2018-07-04T07:04:38.938Z,2.33
2018-07-04T07:09:49.320Z,2.10
2018-07-04T07:14:59.587Z,2.37
2018-07-04T07:20:10.062Z,1.83
2018-07-04T07:25:20.385Z,1.93
2018-07-04T07:30:30.796Z,2.10
2018-07-04T07:35:41.066Z,1.93
2018-07-04T07:40:51.461Z,1.90
2018-07-04T07:46:01.796Z,2.00
2018-07-04T07:51:12.134Z,2.00
2018-07-04T07:56:22.369Z,1.80
2018-07-04T08:01:32.667Z,2.20
2018-07-04T08:06:43.114Z,2.00
2018-07-04T08:11:53.494Z,2.10
2018-07-04T08:17:03.765Z,2.00
2018-07-04T08:22:13.922Z,1.90
2018-07-04T08:27:24.445Z,1.60
2018-07-04T08:32:34.610Z,2.03
2018-07-04T08:37:44.875Z,2.27
2018-07-04T08:42:55.098Z,2.10
2018-07-04T08:48:05.869Z,1.90
2018-07-04T08:53:16.436Z,1.90
2018-07-04T08:58:26.749Z,2.20
2018-07-04T09:03:37.187Z,2.70
2018-07-04T09:08:47.409Z,2.57
2018-07-04T09:13:57.810Z,2.70
2018-07-04T09:19:08.174Z,2.17
2018-07-04T09:24:12.772Z,2.43
2018-07-04T09:29:23.077Z,1.90
2018-07-04T09:34:33.502Z,2.80
2018-07-04T09:39:43.636Z,2.67
2018-07-04T09:44:53.891Z,3.00
2018-07-04T09:50:04.230Z,3.47
2018-07-04T09:55:14.464Z,4.03
2018-07-04T10:00:28.815Z,3.00
2018-07-04T10:05:39.084Z,4.87
2018-07-04T10:10:49.458Z,2.77
2018-07-04T10:15:59.770Z,3.00
2018-07-04T10:21:10.202Z,3.27
2018-07-04T10:26:20.484Z,2.80
2018-07-04T10:31:30.690Z,3.63
2018-07-04T10:36:41.092Z,2.87
2018-07-04T10:41:45.532Z,3.10
2018-07-04T10:46:49.953Z,3.10
2018-07-04T10:52:00.292Z,2.80
2018-07-04T10:57:10.791Z,3.33
2018-07-04T11:02:21.092Z,3.73
2018-07-04T11:07:25.749Z,3.03
2018-07-04T11:12:36.299Z,3.30
2018-07-04T11:17:46.792Z,2.93
2018-07-04T11:22:51.306Z,3.17
2018-07-04T11:28:01.788Z,3.40
2018-07-04T11:33:12.203Z,3.43
2018-07-04T11:38:22.561Z,3.77
2018-07-04T11:43:33.470Z,3.33
2018-07-04T11:48:25.083Z,3.60
2018-07-04T11:53:16.761Z,3.33
2018-07-04T11:58:08.329Z,3.10
2018-07-04T12:02:59.898Z,3.30
2018-07-04T12:07:51.927Z,2.60
2018-07-04T12:12:43.529Z,2.53
2018-07-04T12:17:35.125Z,2.80
2018-07-04T12:22:26.731Z,3.17
2018-07-04T12:27:18.316Z,3.50
2018-07-04T12:32:09.911Z,3.40
2018-07-04T12:37:01.477Z,3.50
2018-07-04T12:41:53.056Z,3.67
2018-07-04T12:46:44.662Z,3.73
2018-07-04T12:51:36.233Z,3.73
2018-07-04T12:56:46.650Z,3.77
2018-07-04T13:01:51.107Z,3.60
2018-07-04T13:07:01.751Z,3.33
2018-07-04T13:12:06.233Z,3.50
2018-07-04T13:17:16.620Z,4.00
2018-07-04T13:22:26.843Z,3.60
2018-07-04T13:27:31.314Z,4.10
2018-07-04T13:32:41.789Z,3.50
2018-07-04T13:37:52.071Z,3.70
2018-07-04T13:43:02.282Z,3.47
2018-07-04T13:48:12.678Z,3.10
2018-07-04T13:53:23.040Z,3.30
2018-07-04T13:58:33.975Z,3.17
2018-07-04T14:03:44.622Z,2.73
2018-07-04T14:08:55.056Z,2.80
2018-07-04T14:14:05.352Z,2.77
2018-07-04T14:19:15.770Z,2.90
2018-07-04T14:24:26.136Z,2.83
2018-07-04T14:29:30.585Z,2.80
2018-07-04T14:34:41.159Z,2.80
2018-07-04T14:39:45.847Z,2.80
2018-07-04T14:44:56.097Z,3.10
2018-07-04T14:50:06.574Z,2.90
2018-07-04T14:55:16.995Z,2.97
2018-07-04T15:00:27.355Z,3.00
2018-07-04T15:05:37.689Z,2.40
2018-07-04T15:10:47.928Z,1.87
2018-07-04T15:15:58.233Z,2.10
2018-07-04T15:21:08.478Z,1.97
2018-07-04T15:26:18.780Z,2.17
2018-07-04T15:31:29.248Z,2.10
2018-07-04T15:36:34.223Z,1.90
2018-07-04T15:41:45.171Z,2.40
2018-07-04T15:46:55.747Z,2.43
2018-07-04T15:52:06.004Z,2.30
2018-07-04T15:57:16.860Z,2.63
2018-07-04T16:02:27.405Z,2.60
2018-07-04T16:07:31.863Z,2.80
2018-07-04T16:12:42.358Z,3.00
2018-07-04T16:17:52.658Z,3.20
2018-07-04T16:23:02.891Z,3.00
2018-07-04T16:28:13.212Z,2.70
2018-07-04T16:33:23.584Z,2.90
2018-07-04T16:38:33.979Z,3.43
2018-07-04T16:43:44.172Z,3.67
2018-07-04T16:48:48.705Z,3.90
2018-07-04T16:53:59.317Z,3.27
2018-07-04T16:59:09.528Z,3.97
2018-07-04T17:04:19.942Z,3.03
2018-07-04T17:09:30.237Z,2.60
2018-07-04T17:14:40.598Z,3.00
2018-07-04T17:19:51.093Z,2.50
2018-07-04T17:25:01.349Z,3.10
2018-07-04T17:30:11.840Z,2.87
2018-07-04T17:35:22.242Z,2.20
2018-07-04T17:40:32.580Z,3.40
2018-07-04T17:45:42.977Z,3.23
2018-07-04T17:50:53.239Z,3.40
2018-07-04T17:56:03.633Z,2.80
2018-07-04T18:01:14.062Z,3.00
2018-07-04T18:06:24.416Z,3.17
2018-07-04T18:11:34.706Z,3.20
2018-07-04T18:16:45.018Z,3.70
2018-07-04T18:21:55.412Z,3.70
2018-07-04T18:27:05.612Z,4.60
2018-07-04T18:32:15.891Z,4.23
2018-07-04T18:37:26.736Z,3.87
2018-07-04T18:42:37.024Z,4.43
2018-07-04T18:47:47.295Z,4.40
2018-07-04T18:52:57.694Z,4.10
2018-07-04T18:58:07.990Z,4.23
2018-07-04T19:03:18.489Z,4.40
2018-07-04T19:08:22.985Z,3.93
2018-07-04T19:13:34.096Z,3.93
2018-07-04T19:18:45.541Z,3.80
2018-07-04T19:23:56.149Z,4.10
2018-07-04T19:29:06.452Z,4.00
2018-07-04T19:34:16.693Z,4.13
2018-07-04T19:39:27.054Z,4.50
2018-07-04T19:44:37.232Z,4.93
2018-07-04T19:49:47.503Z,4.83
2018-07-04T19:54:58.478Z,4.47
2018-07-04T20:00:08.833Z,4.67
2018-07-04T20:05:19.234Z,4.80
2018-07-04T20:10:29.489Z,4.93
2018-07-04T20:15:39.693Z,4.77
2018-07-04T20:20:49.931Z,5.13
2018-07-04T20:26:00.089Z,5.03
2018-07-04T20:31:04.669Z,5.63
2018-07-04T20:36:15.049Z,5.90
2018-07-04T20:41:25.484Z,4.50
2018-07-04T20:46:29.964Z,4.90
2018-07-04T20:51:40.264Z,4.90
2018-07-04T20:56:50.835Z,4.90
2018-07-04T21:02:01.156Z,5.47
2018-07-04T21:07:05.571Z,5.37
2018-07-04T21:12:15.862Z,5.13
2018-07-04T21:17:20.239Z,5.30
2018-07-04T21:22:30.526Z,5.47
2018-07-04T21:27:40.929Z,5.13
2018-07-04T21:32:51.207Z,5.87
2018-07-04T21:38:01.468Z,5.10
2018-07-04T21:43:11.693Z,5.13
2018-07-04T21:48:22.014Z,8.27
2018-07-04T21:53:32.346Z,6.80
2018-07-04T21:58:42.630Z,5.90
2018-07-04T22:03:52.974Z,8.57
2018-07-04T22:09:03.929Z,8.87
2018-07-04T22:14:14.179Z,6.27
2018-07-04T22:19:24.483Z,6.13
2018-07-04T22:24:34.783Z,6.10
2018-07-04T22:29:45.340Z,6.43
2018-07-04T22:34:55.799Z,6.27
2018-07-04T22:40:06.284Z,6.17
2018-07-04T22:45:16.778Z,6.47
2018-07-04T22:50:27.450Z,5.87
2018-07-04T22:55:37.928Z,5.90
2018-07-04T23:00:48.444Z,5.93
2018-07-04T23:05:53.066Z,5.13
2018-07-04T23:10:57.699Z,5.43
2018-07-04T23:16:08.064Z,5.37
2018-07-04T23:21:18.469Z,5.20
2018-07-04T23:26:22.959Z,4.90
2018-07-04T23:31:33.277Z,5.13
2018-07-04T23:36:37.781Z,5.70
2018-07-04T23:41:48.192Z,5.93
2018-07-04T23:46:52.687Z,5.80
2018-07-04T23:52:02.961Z,5.40
2018-07-04T23:57:13.315Z,5.53
